East Coast - Cape St. Francis and south: Past 24 Hour Conditions

 

Natashquan Airport

06:00 AM EST 06 February 2016
Disclaimer

This table is a summary of hourly weather conditions for the past 24 hours.
Please note that these observations might not always be representative of weather conditions over their associated marine area.

Date / Time
(EST)
Wind(knots) Conditions Visibility(km) Pressure(kPa) Air tempC) Relative humidity(%) Dew pointC) Wind Chill
06 February 2016
6:00 NNW 11 gust 16 Clear 16 101.0 -16 71 -20 -25
5:00 NNW 12 Clear 16 100.9 -15 71 -19 -24
4:00 NNW 13 Partly Cloudy 16 100.8 -14 74 -18 -24
3:00 N 15 gust 20 Light Snow 13 100.8 -13 78 -16 -23
2:00 N 14 Light Snow 5 100.8 -12 80 -15 -22
1:00 N 12 gust 17 Light Snow 4 100.9 -12 82 -15 -21
0:00 N 10 Light Snow 3 101.0 -12 85 -14 -20
05 February 2016
23:00 N 10 gust 18 Light Snow 5 101.0 -11 80 -14 -19
22:00 N 11 Light Snow 4 101.2 -11 81 -14 -19
21:00 NNE 11 Light Snow 11 101.3 -10 77 -14 -18
20:00 NNE 8 Light Snow 16 101.5 -10 74 -13 -16
19:00 NNE 9 Cloudy 16 101.6 -9 74 -13 -16
18:00 NNE 9 Cloudy 16 101.6 -9 77 -12 -16
17:00 NNE 8 Cloudy 16 101.7 -8 79 -11 -15
16:00 NNE 6 Cloudy 16 101.8 -8 78 -11 -13
15:00 NNE 6 Mostly Cloudy 16 101.8 -7 77 -11 -12
14:00 NNE 6 Sunny 16 101.7 -7 78 -10 -12
13:00 N 9 Sunny 16 101.8 -7 77 -10 -13
12:00 N 9 Sunny 16 101.8 -7 76 -10 -13
11:00 N 10 gust 15 Sunny 16 101.9 -7 74 -11 -13
10:00 N 8 Sunny 16 101.9 -7 78 -10 -13
9:00 N 7 Sunny 16 101.9 -7 75 -11 -13
8:00 NNW 7 Mainly Sunny 16 101.9 -8 81 -10 -13
7:00 N 4 Cloudy 16 101.8 -7 82 -9 -11
6:00 N 4 Mostly Cloudy 16 101.8 -6 81 -9 -10

Zoom-in to make a selection

Map of Atlantic - Newfoundland marine weather areas Southwestern Grand Banks - 44138 Banquereau - 44139 Tail of the Bank - 44140 Nickerson Bank - 44251 Northeast Burgeo Bank - 44255 Blanc-Sablon Airport Cap Whittle Chevery Natashquan Airport Heath Point Miscou Island Grand Étang Ingonish Beach North Mountain St.Paul Island J.A. Douglas McCurdy Sydney Airport Charlottetown Airport East Point North Cape Argentia Bonavista Burgeo Cape Race Corner Brook Daniel's Harbour Englee Ferolle Point La Scie Port aux Basques Rocky Harbour Sagona Island St. Anthony Airport St. John's Int'l Airport St. Lawrence Stephenville Airport Twillingate Winterland Wreckhouse Cartwright Airport Mary's Harbour Grates Cove Pool's Island Marticot Island Long Pond Eskasoni (First Nations) Îles de la Madeleine Airport
Legend:
buoy Buoy
land station Land Station

Atlantic - Newfoundland Area

Another Region

What we are doing

Date modified: